Time;durP1;ratioP1;P1;durP2;ratioP2;P2;SDS_P1;SDS_P2;PMS_P1;PMS_P2;Temp;Humidity;BMP_temperature;BMP_pressure;BME280_temperature;BME280_humidity;BME280_pressure;Samples;Min_cycle;Max_cycle;Signal;HPM_P1;HPM_P2
2022/03/07 00:01:56;;;;;;;14.60;9.70;;;;;;;;;;5053377;28;20396;-78
2022/03/07 00:04:22;;;;;;;13.82;9.13;;;;;;;;;;5053071;28;20487;-72
2022/03/07 00:06:48;;;;;;;13.27;9.27;;;;;;;;;;5052253;28;20259;-77
2022/03/07 00:09:14;;;;;;;11.50;8.93;;;;;;;;;;5053417;28;20416;-77
2022/03/07 00:11:41;;;;;;;13.20;8.70;;;;;;;;;;5053378;28;20175;-77
2022/03/07 00:14:07;;;;;;;14.50;8.75;;;;;;;;;;5053420;28;20493;-76
2022/03/07 00:16:33;;;;;;;14.65;9.77;;;;;;;;;;5053297;28;20196;-76
2022/03/07 00:18:59;;;;;;;17.95;10.90;;;;;;;;;;5053180;28;20173;-75
2022/03/07 00:21:25;;;;;;;13.68;9.32;;;;;;;;;;5053065;28;20174;-64
2022/03/07 00:23:51;;;;;;;13.97;8.50;;;;;;;;;;5053121;28;20683;-68
2022/03/07 00:26:18;;;;;;;15.10;10.00;;;;;;;;;;5052829;28;20472;-65
2022/03/07 00:28:44;;;;;;;13.80;8.90;;;;;;;;;;5051445;28;20415;-69
2022/03/07 00:31:11;;;;;;;12.25;8.77;;;;;;;;;;5052920;28;20412;-61
2022/03/07 00:33:37;;;;;;;11.37;8.57;;;;;;;;;;5052995;28;20326;-63
2022/03/07 00:36:04;;;;;;;16.17;10.07;;;;;;;;;;5052949;28;20449;-69
2022/03/07 00:38:30;;;;;;;11.60;8.52;;;;;;;;;;5052819;28;20872;-63
2022/03/07 00:40:56;;;;;;;13.17;9.23;;;;;;;;;;5052876;28;20585;-61
2022/03/07 00:43:22;;;;;;;11.38;7.97;;;;;;;;;;5052481;28;20422;-64
2022/03/07 00:45:48;;;;;;;12.20;8.80;;;;;;;;;;5052867;28;20261;-66
2022/03/07 00:48:15;;;;;;;13.75;8.90;;;;;;;;;;5052850;28;20172;-65
2022/03/07 00:50:42;;;;;;;11.40;9.03;;;;;;;;;;5051443;28;20641;-66
2022/03/07 00:53:12;;;;;;;11.03;8.40;;;;;;;;;;5052657;28;20515;-68
2022/03/07 00:55:38;;;;;;;12.23;8.05;;;;;;;;;;5052777;28;20423;-60
2022/03/07 00:58:05;;;;;;;14.27;8.63;;;;;;;;;;5052823;28;20258;-69
2022/03/07 01:00:31;;;;;;;14.93;9.40;;;;;;;;;;5052725;28;20412;-66
2022/03/07 01:02:57;;;;;;;14.17;8.10;;;;;;;;;;5052330;28;20187;-61
2022/03/07 01:05:23;;;;;;;10.70;8.13;;;;;;;;;;5052587;28;20489;-71
2022/03/07 01:07:49;;;;;;;12.75;8.43;;;;;;;;;;5052618;28;20180;-61
2022/03/07 01:10:15;;;;;;;13.88;8.80;;;;;;;;;;5052714;28;20176;-61
2022/03/07 01:12:41;;;;;;;13.25;9.10;;;;;;;;;;5052537;28;20255;-61
2022/03/07 01:15:08;;;;;;;11.65;8.73;;;;;;;;;;5052640;28;20181;-61
2022/03/07 01:17:34;;;;;;;13.07;9.07;;;;;;;;;;5052504;28;20310;-61
2022/03/07 01:20:01;;;;;;;11.80;8.50;;;;;;;;;;5052474;28;20188;-64
2022/03/07 01:22:27;;;;;;;12.38;8.57;;;;;;;;;;5052200;28;20167;-61
2022/03/07 01:24:53;;;;;;;14.27;8.90;;;;;;;;;;5051185;28;20306;-64
2022/03/07 01:27:19;;;;;;;13.13;8.80;;;;;;;;;;5051235;28;20928;-61
2022/03/07 01:29:45;;;;;;;12.13;7.97;;;;;;;;;;5052382;28;20416;-73
2022/03/07 01:32:11;;;;;;;10.55;8.15;;;;;;;;;;5052281;28;20164;-73
2022/03/07 01:34:37;;;;;;;11.88;8.75;;;;;;;;;;5052421;28;20181;-70
2022/03/07 01:37:03;;;;;;;12.23;6.93;;;;;;;;;;5052427;28;20181;-71
2022/03/07 01:39:29;;;;;;;12.02;8.20;;;;;;;;;;5053550;28;20418;-76
2022/03/07 01:41:55;;;;;;;11.88;8.27;;;;;;;;;;5055661;28;20182;-76
2022/03/07 01:44:23;;;;;;;11.50;8.10;;;;;;;;;;5055660;28;20621;-73
2022/03/07 01:46:49;;;;;;;13.77;7.65;;;;;;;;;;5055827;28;20212;-76
2022/03/07 01:49:16;;;;;;;17.63;8.57;;;;;;;;;;5054395;28;20171;-74
2022/03/07 01:51:43;;;;;;;13.30;8.80;;;;;;;;;;5055712;28;20694;-72
2022/03/07 01:54:10;;;;;;;14.35;8.75;;;;;;;;;;5055522;28;20192;-76
2022/03/07 01:56:36;;;;;;;10.32;6.90;;;;;;;;;;5055558;28;20168;-74
2022/03/07 01:59:03;;;;;;;14.02;8.57;;;;;;;;;;5055495;28;20185;-68
2022/03/07 02:01:29;;;;;;;13.27;8.27;;;;;;;;;;5055358;28;20176;-64
2022/03/07 02:03:56;;;;;;;10.13;7.25;;;;;;;;;;5054656;28;20234;-61
2022/03/07 02:06:22;;;;;;;11.35;7.05;;;;;;;;;;5055411;28;20233;-64
2022/03/07 02:08:49;;;;;;;12.75;7.90;;;;;;;;;;5054072;28;20177;-63
2022/03/07 02:11:16;;;;;;;12.45;8.07;;;;;;;;;;5055316;28;20179;-60
2022/03/07 02:13:42;;;;;;;13.35;8.20;;;;;;;;;;5055486;28;20231;-62
2022/03/07 02:16:09;;;;;;;11.70;7.50;;;;;;;;;;5055356;28;20655;-60
2022/03/07 02:18:35;;;;;;;10.43;7.68;;;;;;;;;;5055240;28;20429;-62
2022/03/07 02:21:04;;;;;;;13.80;9.05;;;;;;;;;;5055142;28;20611;-60
2022/03/07 02:23:31;;;;;;;12.68;8.40;;;;;;;;;;5054925;28;20199;-67
2022/03/07 02:25:57;;;;;;;9.90;7.22;;;;;;;;;;5055140;28;20221;-67
2022/03/07 02:28:23;;;;;;;12.60;8.43;;;;;;;;;;5053775;28;20260;-71
2022/03/07 02:30:51;;;;;;;10.82;8.07;;;;;;;;;;5055046;28;20499;-66
2022/03/07 02:33:17;;;;;;;13.98;8.15;;;;;;;;;;5054847;28;20193;-66
2022/03/07 02:35:43;;;;;;;10.97;7.50;;;;;;;;;;5054887;28;20204;-65
2022/03/07 02:38:14;;;;;;;12.07;8.47;;;;;;;;;;5054910;28;20468;-71
2022/03/07 02:40:40;;;;;;;12.27;7.70;;;;;;;;;;5054723;28;20418;-64
2022/03/07 02:43:06;;;;;;;10.77;7.78;;;;;;;;;;5054674;28;20208;-69
2022/03/07 02:45:32;;;;;;;9.30;7.80;;;;;;;;;;5054538;28;20696;-69
2022/03/07 02:47:58;;;;;;;14.10;8.30;;;;;;;;;;5054666;28;20416;-72
2022/03/07 02:50:24;;;;;;;10.38;7.93;;;;;;;;;;5054157;28;20500;-66
2022/03/07 02:52:50;;;;;;;14.53;8.23;;;;;;;;;;5053107;28;20261;-67
2022/03/07 02:55:16;;;;;;;11.87;8.17;;;;;;;;;;5054516;28;20773;-60
2022/03/07 02:57:42;;;;;;;11.93;8.05;;;;;;;;;;5054398;28;20417;-67
2022/03/07 03:00:09;;;;;;;13.55;8.82;;;;;;;;;;5054336;28;20172;-61
2022/03/07 03:02:35;;;;;;;11.18;7.50;;;;;;;;;;5054179;28;20248;-60
2022/03/07 03:05:01;;;;;;;10.30;7.10;;;;;;;;;;5053912;28;20659;-60
2022/03/07 03:07:27;;;;;;;11.23;8.10;;;;;;;;;;5054269;28;20221;-60
2022/03/07 03:09:53;;;;;;;10.63;7.83;;;;;;;;;;5054203;28;20411;-63
2022/03/07 03:12:24;;;;;;;12.40;8.05;;;;;;;;;;5054075;28;20431;-61
2022/03/07 03:14:50;;;;;;;12.32;8.02;;;;;;;;;;5053997;28;20708;-60
2022/03/07 03:17:16;;;;;;;9.98;7.72;;;;;;;;;;5054028;28;20171;-66
2022/03/07 03:19:42;;;;;;;11.00;8.38;;;;;;;;;;5054075;28;20199;-60
2022/03/07 03:22:08;;;;;;;14.80;8.35;;;;;;;;;;5053728;28;20579;-60
2022/03/07 03:24:34;;;;;;;11.87;8.00;;;;;;;;;;5053768;28;20248;-76
2022/03/07 03:27:00;;;;;;;13.53;8.33;;;;;;;;;;5053856;28;20435;-74
2022/03/07 03:29:26;;;;;;;12.40;8.73;;;;;;;;;;5053880;28;20542;-76
2022/03/07 03:31:52;;;;;;;13.70;8.82;;;;;;;;;;5053769;28;20408;-75
2022/03/07 03:34:18;;;;;;;11.83;7.97;;;;;;;;;;5053675;28;20173;-76
2022/03/07 03:36:45;;;;;;;12.90;7.87;;;;;;;;;;5053718;28;20745;-76
2022/03/07 03:39:11;;;;;;;13.35;8.25;;;;;;;;;;5053685;28;20862;-75
2022/03/07 03:41:37;;;;;;;15.20;8.80;;;;;;;;;;5053508;28;20256;-74
2022/03/07 03:44:03;;;;;;;11.80;9.05;;;;;;;;;;5053438;28;20231;-76
2022/03/07 03:46:29;;;;;;;11.43;7.47;;;;;;;;;;5053534;28;20543;-76
2022/03/07 03:48:55;;;;;;;10.52;7.68;;;;;;;;;;5053589;28;20712;-75
2022/03/07 03:51:21;;;;;;;13.00;8.20;;;;;;;;;;5053427;28;20255;-76
2022/03/07 03:53:47;;;;;;;14.43;8.80;;;;;;;;;;5053348;28;20418;-75
2022/03/07 03:56:13;;;;;;;10.93;8.02;;;;;;;;;;5053470;28;20430;-68
2022/03/07 03:58:39;;;;;;;11.47;7.67;;;;;;;;;;5053376;28;20623;-75
2022/03/07 04:01:06;;;;;;;13.27;8.17;;;;;;;;;;5052937;28;20456;-76
2022/03/07 04:03:32;;;;;;;13.68;7.82;;;;;;;;;;5052570;28;20586;-72
2022/03/07 04:05:58;;;;;;;14.30;8.68;;;;;;;;;;5053378;28;20184;-74
2022/03/07 04:08:24;;;;;;;13.10;8.00;;;;;;;;;;5053313;28;20206;-76
2022/03/07 04:10:50;;;;;;;11.93;8.40;;;;;;;;;;5053114;28;20528;-73
2022/03/07 04:13:16;;;;;;;13.82;8.75;;;;;;;;;;5053279;28;20439;-60
2022/03/07 04:15:42;;;;;;;13.47;8.67;;;;;;;;;;5053106;28;20543;-60
2022/03/07 04:18:08;;;;;;;13.45;8.73;;;;;;;;;;5053069;28;20870;-60
2022/03/07 04:20:34;;;;;;;14.87;9.10;;;;;;;;;;5051793;28;20271;-67
2022/03/07 04:23:01;;;;;;;15.00;8.63;;;;;;;;;;5053031;28;20530;-65
2022/03/07 04:25:27;;;;;;;14.38;8.63;;;;;;;;;;5053029;28;20219;-76
2022/03/07 04:27:53;;;;;;;17.70;9.35;;;;;;;;;;5052912;28;20181;-77
2022/03/07 04:30:19;;;;;;;13.18;9.18;;;;;;;;;;5052786;28;20176;-76
2022/03/07 04:32:45;;;;;;;13.27;8.85;;;;;;;;;;5052988;28;20255;-77
2022/03/07 04:35:12;;;;;;;15.80;10.00;;;;;;;;;;5051734;28;20188;-75
2022/03/07 04:37:40;;;;;;;17.40;9.88;;;;;;;;;;5052987;28;20647;-75
2022/03/07 04:40:07;;;;;;;11.82;8.85;;;;;;;;;;5052913;28;20689;-76
2022/03/07 04:42:33;;;;;;;14.35;9.45;;;;;;;;;;5052726;28;20642;-76
2022/03/07 04:44:59;;;;;;;16.70;9.77;;;;;;;;;;5052799;28;20223;-77
2022/03/07 04:47:25;;;;;;;12.87;9.63;;;;;;;;;;5052713;28;20416;-75
2022/03/07 04:49:51;;;;;;;17.85;11.02;;;;;;;;;;5052769;28;20464;-73
2022/03/07 04:52:17;;;;;;;15.23;9.50;;;;;;;;;;5052761;28;20167;-73
2022/03/07 04:54:43;;;;;;;14.25;9.35;;;;;;;;;;5052644;28;20439;-69
2022/03/07 04:57:09;;;;;;;15.60;9.00;;;;;;;;;;5052649;28;20173;-60
2022/03/07 04:59:35;;;;;;;13.85;9.60;;;;;;;;;;5052597;28;20180;-77
2022/03/07 05:02:01;;;;;;;14.53;9.20;;;;;;;;;;5052577;28;20164;-60
2022/03/07 05:04:27;;;;;;;13.73;10.37;;;;;;;;;;5052318;28;20995;-61
2022/03/07 05:06:53;;;;;;;18.30;9.67;;;;;;;;;;5052543;28;20418;-63
2022/03/07 05:09:19;;;;;;;17.77;9.63;;;;;;;;;;5052685;28;20893;-60
2022/03/07 05:11:45;;;;;;;19.52;10.70;;;;;;;;;;5052595;28;20402;-62
2022/03/07 05:14:11;;;;;;;17.58;10.15;;;;;;;;;;5054923;28;20170;-60
2022/03/07 05:16:37;;;;;;;21.70;11.82;;;;;;;;;;5056379;28;20188;-69
2022/03/07 05:19:03;;;;;;;17.47;9.83;;;;;;;;;;5057293;28;20179;-60
2022/03/07 05:21:29;;;;;;;19.38;10.80;;;;;;;;;;5056307;28;20804;-76
2022/03/07 05:23:55;;;;;;;16.08;9.75;;;;;;;;;;5056207;28;20283;-76
2022/03/07 05:26:21;;;;;;;22.50;11.20;;;;;;;;;;5056249;28;20640;-77
2022/03/07 05:28:47;;;;;;;15.85;10.23;;;;;;;;;;5055000;28;20287;-76
2022/03/07 05:31:13;;;;;;;16.70;9.80;;;;;;;;;;5056036;28;20171;-75
2022/03/07 05:33:40;;;;;;;18.27;9.75;;;;;;;;;;5056103;28;20750;-76
2022/03/07 05:36:07;;;;;;;21.17;10.80;;;;;;;;;;5056011;28;20190;-74
2022/03/07 05:38:34;;;;;;;18.88;9.93;;;;;;;;;;5056061;28;20169;-75
2022/03/07 05:41:00;;;;;;;17.48;8.90;;;;;;;;;;5055865;28;20258;-77
2022/03/07 05:43:25;;;;;;;21.30;10.97;;;;;;;;;;5055781;28;20198;-77
2022/03/07 05:45:51;;;;;;;17.43;9.63;;;;;;;;;;5055948;28;20547;-76
2022/03/07 05:48:17;;;;;;;16.00;9.30;;;;;;;;;;5055952;28;20413;-68
2022/03/07 05:50:43;;;;;;;18.00;10.40;;;;;;;;;;5055667;28;20410;-77
2022/03/07 05:53:09;;;;;;;15.50;9.10;;;;;;;;;;5055500;28;20917;-76
2022/03/07 05:55:35;;;;;;;18.00;10.30;;;;;;;;;;5055815;28;20399;-76
2022/03/07 05:58:01;;;;;;;17.77;10.88;;;;;;;;;;5055615;28;20427;-77
2022/03/07 06:00:28;;;;;;;16.40;9.47;;;;;;;;;;5055706;28;20183;-77
2022/03/07 06:02:54;;;;;;;14.55;8.18;;;;;;;;;;5055540;28;20443;-72
2022/03/07 06:05:21;;;;;;;16.15;9.50;;;;;;;;;;5055532;28;20225;-73
2022/03/07 06:07:47;;;;;;;14.23;8.23;;;;;;;;;;5054484;28;20217;-74
2022/03/07 06:10:13;;;;;;;17.27;9.18;;;;;;;;;;5055528;28;20176;-61
2022/03/07 06:12:39;;;;;;;16.70;9.17;;;;;;;;;;5056433;28;20624;-75
2022/03/07 06:15:06;;;;;;;14.03;8.10;;;;;;;;;;5054526;28;20418;-78
2022/03/07 06:17:33;;;;;;;15.00;8.98;;;;;;;;;;5055378;28;20415;-74
2022/03/07 06:19:59;;;;;;;16.08;9.98;;;;;;;;;;5055272;28;20624;-78
2022/03/07 06:22:25;;;;;;;12.88;8.57;;;;;;;;;;5055260;28;20560;-71
2022/03/07 06:24:52;;;;;;;16.10;8.77;;;;;;;;;;5054405;28;20216;-77
2022/03/07 06:27:18;;;;;;;19.50;8.93;;;;;;;;;;5053959;28;20404;-76
2022/03/07 06:29:44;;;;;;;13.68;7.82;;;;;;;;;;5055109;28;20278;-78
2022/03/07 06:32:10;;;;;;;11.80;7.80;;;;;;;;;;5055022;28;20262;-72
2022/03/07 06:34:36;;;;;;;15.52;9.40;;;;;;;;;;5055149;28;20937;-76
2022/03/07 06:37:02;;;;;;;16.17;8.15;;;;;;;;;;5055022;28;20172;-74
2022/03/07 06:39:29;;;;;;;16.58;9.07;;;;;;;;;;5054869;28;20175;-75
2022/03/07 06:41:55;;;;;;;13.52;8.65;;;;;;;;;;5054940;28;20196;-78
2022/03/07 06:44:21;;;;;;;15.38;8.73;;;;;;;;;;5054777;28;20208;-80
2022/03/07 06:46:47;;;;;;;13.85;7.25;;;;;;;;;;5053697;28;20670;-79
2022/03/07 06:49:13;;;;;;;12.07;7.93;;;;;;;;;;5055017;28;20167;-78
2022/03/07 06:51:39;;;;;;;13.88;7.20;;;;;;;;;;5054770;28;20434;-77
2022/03/07 06:54:05;;;;;;;12.90;8.33;;;;;;;;;;5054861;28;20196;-76
2022/03/07 06:56:31;;;;;;;12.57;8.18;;;;;;;;;;5054575;28;20435;-75
2022/03/07 06:58:59;;;;;;;12.27;7.88;;;;;;;;;;5054669;28;20207;-71
2022/03/07 07:01:25;;;;;;;14.80;8.13;;;;;;;;;;5054303;28;20157;-78
2022/03/07 07:03:51;;;;;;;13.77;8.02;;;;;;;;;;5054103;28;20310;-73
2022/03/07 07:06:17;;;;;;;14.37;7.60;;;;;;;;;;5054404;28;20172;-76
2022/03/07 07:08:43;;;;;;;16.20;7.90;;;;;;;;;;5054225;28;20932;-78
2022/03/07 07:11:09;;;;;;;12.73;8.45;;;;;;;;;;5054202;28;20495;-71
2022/03/07 07:13:35;;;;;;;14.17;7.10;;;;;;;;;;5054405;28;20248;-60
2022/03/07 07:16:01;;;;;;;11.37;6.77;;;;;;;;;;5054114;28;20906;-77
2022/03/07 07:18:27;;;;;;;12.00;7.68;;;;;;;;;;5054137;28;20417;-60
2022/03/07 07:20:53;;;;;;;13.93;8.20;;;;;;;;;;5053993;28;20176;-66
2022/03/07 07:23:20;;;;;;;13.20;7.53;;;;;;;;;;5054050;28;20439;-64
2022/03/07 07:25:46;;;;;;;13.85;8.18;;;;;;;;;;5053997;28;20758;-62
2022/03/07 07:28:13;;;;;;;10.70;6.72;;;;;;;;;;5054078;28;20286;-61
2022/03/07 07:30:39;;;;;;;11.52;6.95;;;;;;;;;;5054043;28;20259;-60
2022/03/07 07:33:06;;;;;;;14.57;7.82;;;;;;;;;;5053928;28;20703;-62
2022/03/07 07:35:34;;;;;;;13.43;8.43;;;;;;;;;;5054116;28;20168;-60
2022/03/07 07:38:00;;;;;;;16.52;8.40;;;;;;;;;;5053897;28;20534;-61
2022/03/07 07:40:26;;;;;;;14.73;7.97;;;;;;;;;;5053849;28;20612;-63
2022/03/07 07:42:52;;;;;;;14.30;7.80;;;;;;;;;;5053738;28;20180;-62
2022/03/07 07:45:18;;;;;;;15.03;9.70;;;;;;;;;;5053653;28;20811;-61
2022/03/07 07:47:44;;;;;;;14.60;9.23;;;;;;;;;;5053544;28;20399;-60
2022/03/07 07:50:11;;;;;;;16.02;9.23;;;;;;;;;;5053607;28;20493;-61
2022/03/07 07:52:37;;;;;;;19.45;9.00;;;;;;;;;;5053578;28;20172;-63
2022/03/07 07:55:05;;;;;;;11.13;7.43;;;;;;;;;;5053476;28;20242;-64
2022/03/07 07:57:31;;;;;;;21.55;9.00;;;;;;;;;;5053387;28;20556;-62
2022/03/07 07:59:57;;;;;;;18.20;9.38;;;;;;;;;;5053541;28;20577;-62
2022/03/07 08:02:23;;;;;;;14.63;9.00;;;;;;;;;;5053425;28;20173;-62
2022/03/07 08:04:51;;;;;;;15.43;8.68;;;;;;;;;;5053057;28;20232;-60
2022/03/07 08:07:18;;;;;;;14.80;8.98;;;;;;;;;;5053279;28;20593;-60
2022/03/07 08:09:44;;;;;;;11.98;9.13;;;;;;;;;;5053322;28;20172;-62
2022/03/07 08:12:10;;;;;;;16.10;9.40;;;;;;;;;;5053241;28;20204;-60
2022/03/07 08:14:37;;;;;;;12.38;8.55;;;;;;;;;;5053239;28;20430;-62
2022/03/07 08:17:05;;;;;;;14.73;9.82;;;;;;;;;;5053272;28;20177;-61
2022/03/07 08:19:31;;;;;;;19.23;10.00;;;;;;;;;;5053237;28;20187;-60
2022/03/07 08:21:57;;;;;;;14.80;9.57;;;;;;;;;;5053038;28;20175;-62
2022/03/07 08:24:23;;;;;;;16.10;9.65;;;;;;;;;;5053065;28;20212;-62
2022/03/07 08:26:49;;;;;;;15.23;10.25;;;;;;;;;;5053078;28;20229;-60
2022/03/07 08:29:15;;;;;;;13.93;8.60;;;;;;;;;;5052996;28;20171;-60
2022/03/07 08:31:41;;;;;;;16.90;9.10;;;;;;;;;;5051653;28;20338;-60
2022/03/07 08:34:07;;;;;;;16.70;9.03;;;;;;;;;;5052927;28;20419;-61
2022/03/07 08:36:33;;;;;;;13.75;9.20;;;;;;;;;;5052832;28;20414;-61
2022/03/07 08:39:00;;;;;;;17.00;9.30;;;;;;;;;;5052926;28;20534;-61
2022/03/07 08:41:26;;;;;;;14.18;9.40;;;;;;;;;;5052678;28;20185;-63
2022/03/07 08:43:53;;;;;;;12.70;8.48;;;;;;;;;;5052874;28;20207;-62
2022/03/07 08:46:19;;;;;;;14.93;8.98;;;;;;;;;;5052885;28;20184;-62
2022/03/07 08:48:45;;;;;;;17.38;9.88;;;;;;;;;;5054969;28;20177;-63
2022/03/07 08:51:11;;;;;;;14.48;8.73;;;;;;;;;;5056992;28;20263;-64
2022/03/07 08:53:37;;;;;;;16.50;9.83;;;;;;;;;;5056787;28;20663;-61
2022/03/07 08:56:03;;;;;;;19.13;10.00;;;;;;;;;;5056784;28;20403;-67
2022/03/07 08:58:29;;;;;;;11.82;8.70;;;;;;;;;;5056790;28;20276;-61
2022/03/07 09:00:55;;;;;;;15.03;9.20;;;;;;;;;;5056568;28;20697;-61
2022/03/07 09:03:21;;;;;;;11.95;8.48;;;;;;;;;;5056471;28;20497;-62
2022/03/07 09:05:47;;;;;;;24.67;10.13;;;;;;;;;;5056591;28;20213;-64
2022/03/07 09:08:13;;;;;;;15.30;9.10;;;;;;;;;;5057850;28;20584;-63
2022/03/07 09:10:39;;;;;;;15.80;9.50;;;;;;;;;;5056609;28;20402;-68
2022/03/07 09:13:05;;;;;;;15.40;9.13;;;;;;;;;;5056422;28;20226;-68
2022/03/07 09:15:31;;;;;;;13.68;9.88;;;;;;;;;;5056416;28;20176;-69
2022/03/07 09:17:57;;;;;;;15.52;9.07;;;;;;;;;;5056411;28;20174;-70
2022/03/07 09:20:23;;;;;;;18.17;10.05;;;;;;;;;;5056401;28;20176;-66
2022/03/07 09:22:49;;;;;;;13.50;9.70;;;;;;;;;;5056250;28;20246;-61
2022/03/07 09:25:16;;;;;;;15.77;9.82;;;;;;;;;;5056322;28;20610;-63
2022/03/07 09:27:43;;;;;;;16.23;9.75;;;;;;;;;;5056295;28;20334;-69
2022/03/07 09:30:09;;;;;;;15.03;9.47;;;;;;;;;;5056337;28;20254;-64
2022/03/07 09:32:36;;;;;;;18.67;10.20;;;;;;;;;;5056204;28;20877;-67
2022/03/07 09:35:02;;;;;;;15.40;9.30;;;;;;;;;;5056074;28;20934;-71
2022/03/07 09:37:28;;;;;;;14.47;8.97;;;;;;;;;;5056208;28;20411;-71
2022/03/07 09:39:54;;;;;;;13.73;9.38;;;;;;;;;;5056092;28;20412;-65
2022/03/07 09:42:21;;;;;;;9.80;6.87;;;;;;;;;;5055870;28;20225;-67
2022/03/07 09:44:47;;;;;;;15.73;9.52;;;;;;;;;;5055913;28;20466;-68
2022/03/07 09:47:14;;;;;;;13.63;9.00;;;;;;;;;;5056054;28;20173;-63
2022/03/07 09:49:40;;;;;;;15.40;9.60;;;;;;;;;;5055907;28;20182;-63
2022/03/07 09:52:06;;;;;;;17.60;9.20;;;;;;;;;;5055866;28;20528;-62
2022/03/07 09:54:32;;;;;;;14.90;9.80;;;;;;;;;;5055705;28;20949;-61
2022/03/07 09:56:58;;;;;;;15.00;9.40;;;;;;;;;;5054564;28;20432;-62
2022/03/07 09:59:25;;;;;;;16.77;9.55;;;;;;;;;;5054743;28;20422;-63
2022/03/07 10:02:01;;;;;;;15.30;8.88;;;;;;;;;;5055566;28;20197;-61
2022/03/07 10:04:29;;;;;;;12.30;8.33;;;;;;;;;;5055588;28;20226;-68
2022/03/07 10:06:55;;;;;;;18.17;9.13;;;;;;;;;;5055468;28;20911;-65
2022/03/07 10:09:22;;;;;;;14.00;8.73;;;;;;;;;;5055386;28;20964;-67
2022/03/07 10:11:53;;;;;;;18.13;10.40;;;;;;;;;;5055330;28;20545;-69
2022/03/07 10:14:29;;;;;;;14.60;9.50;;;;;;;;;;5055363;28;20816;-65
2022/03/07 10:16:55;;;;;;;15.20;10.30;;;;;;;;;;5055369;28;20487;-67
2022/03/07 10:19:21;;;;;;;20.63;9.80;;;;;;;;;;5055367;28;20508;-72
2022/03/07 10:21:48;;;;;;;15.53;8.83;;;;;;;;;;5055236;28;20403;-65
2022/03/07 10:24:14;;;;;;;16.80;10.13;;;;;;;;;;5055128;28;20820;-72
2022/03/07 10:26:40;;;;;;;15.47;10.40;;;;;;;;;;5055301;28;20470;-63
2022/03/07 10:29:06;;;;;;;18.67;10.40;;;;;;;;;;5055181;28;20422;-64
2022/03/07 10:31:33;;;;;;;15.87;9.97;;;;;;;;;;5055015;28;20901;-66
2022/03/07 10:34:01;;;;;;;18.70;10.83;;;;;;;;;;5055050;28;20407;-68
2022/03/07 10:36:47;;;;;;;15.63;9.90;;;;;;;;;;5055238;28;20446;-64
2022/03/07 10:39:15;;;;;;;20.07;11.00;;;;;;;;;;5054900;28;20458;-67
2022/03/07 10:41:44;;;;;;;14.27;10.17;;;;;;;;;;5054814;28;20953;-62
2022/03/07 10:44:25;;;;;;;16.30;10.80;;;;;;;;;;5054731;28;20499;-62
2022/03/07 10:46:51;;;;;;;14.50;9.77;;;;;;;;;;5055011;28;20398;-61
2022/03/07 10:49:18;;;;;;;16.40;10.73;;;;;;;;;;5054817;28;20474;-61
2022/03/07 10:51:51;;;;;;;15.80;10.60;;;;;;;;;;5053374;28;20410;-61
2022/03/07 10:54:19;;;;;;;12.37;9.53;;;;;;;;;;5054584;28;20423;-63
2022/03/07 10:56:51;;;;;;;18.77;11.00;;;;;;;;;;5054843;28;20410;-61
2022/03/07 10:59:31;;;;;;;16.07;10.73;;;;;;;;;;5055068;28;20414;-67
2022/03/07 11:02:06;;;;;;;16.20;10.57;;;;;;;;;;5054355;28;20411;-71
2022/03/07 11:04:32;;;;;;;13.67;9.57;;;;;;;;;;5054309;28;20536;-63
2022/03/07 11:06:58;;;;;;;16.73;10.60;;;;;;;;;;5054399;28;20477;-68
2022/03/07 11:09:24;;;;;;;14.57;10.47;;;;;;;;;;5054686;28;20395;-66
2022/03/07 11:11:51;;;;;;;16.20;10.13;;;;;;;;;;5053979;28;20407;-61
2022/03/07 11:14:17;;;;;;;16.10;10.60;;;;;;;;;;5054420;28;20407;-71
2022/03/07 11:16:45;;;;;;;13.57;9.40;;;;;;;;;;5054416;28;20463;-66
2022/03/07 11:19:12;;;;;;;14.80;9.13;;;;;;;;;;5054085;28;20417;-72
2022/03/07 11:21:41;;;;;;;14.60;10.50;;;;;;;;;;5054022;28;20914;-64
2022/03/07 11:24:07;;;;;;;16.37;10.90;;;;;;;;;;5053942;28;20451;-63
2022/03/07 11:26:33;;;;;;;14.67;9.67;;;;;;;;;;5054264;28;20552;-62
2022/03/07 11:28:59;;;;;;;17.57;10.73;;;;;;;;;;5054063;28;20494;-62
2022/03/07 11:31:26;;;;;;;15.37;10.70;;;;;;;;;;5054044;28;20510;-62
2022/03/07 11:33:53;;;;;;;15.23;10.43;;;;;;;;;;5053893;28;20755;-63
2022/03/07 11:36:21;;;;;;;13.73;9.83;;;;;;;;;;5054040;28;20407;-63
2022/03/07 11:39:13;;;;;;;17.40;10.63;;;;;;;;;;5052646;28;20489;-64
2022/03/07 11:41:40;;;;;;;17.30;11.00;;;;;;;;;;5053244;28;20984;-63
2022/03/07 11:44:10;;;;;;;17.30;10.97;;;;;;;;;;5053713;28;20537;-64
2022/03/07 11:46:51;;;;;;;20.43;12.93;;;;;;;;;;5053710;28;20469;-62
2022/03/07 11:49:26;;;;;;;16.37;10.63;;;;;;;;;;5053680;28;20411;-66
2022/03/07 11:51:59;;;;;;;18.30;11.40;;;;;;;;;;5053537;28;20430;-61
2022/03/07 11:54:25;;;;;;;14.03;9.83;;;;;;;;;;5053549;28;20435;-76
2022/03/07 11:56:52;;;;;;;15.93;10.50;;;;;;;;;;5052359;28;20480;-63
2022/03/07 11:59:28;;;;;;;16.40;11.30;;;;;;;;;;5053577;28;20500;-69
2022/03/07 12:01:54;;;;;;;16.50;9.83;;;;;;;;;;5053468;28;20398;-64
2022/03/07 12:04:20;;;;;;;17.67;11.00;;;;;;;;;;5053366;28;20573;-66
2022/03/07 12:06:54;;;;;;;16.53;10.50;;;;;;;;;;5053701;28;20501;-68
2022/03/07 12:09:39;;;;;;;18.07;9.90;;;;;;;;;;5053464;28;20407;-70
2022/03/07 12:12:09;;;;;;;16.20;9.90;;;;;;;;;;5053490;28;20478;-64
2022/03/07 12:14:38;;;;;;;15.57;9.77;;;;;;;;;;5053653;28;20395;-67
2022/03/07 12:17:24;;;;;;;14.00;10.10;;;;;;;;;;5053440;28;20913;-63
2022/03/07 12:19:54;;;;;;;14.63;9.67;;;;;;;;;;5052080;28;20510;-64
2022/03/07 12:22:23;;;;;;;18.90;9.20;;;;;;;;;;5052612;28;20454;-63
2022/03/07 12:24:49;;;;;;;11.93;8.43;;;;;;;;;;5052866;28;20524;-68
2022/03/07 12:27:15;;;;;;;18.07;10.13;;;;;;;;;;5053034;28;20429;-63
2022/03/07 12:29:45;;;;;;;14.90;9.87;;;;;;;;;;5053019;28;20422;-64
2022/03/07 12:32:12;;;;;;;16.93;10.37;;;;;;;;;;5052961;28;20408;-62
2022/03/07 12:34:43;;;;;;;14.30;9.37;;;;;;;;;;5053399;28;20537;-64
2022/03/07 12:37:20;;;;;;;15.03;9.53;;;;;;;;;;5051597;28;20419;-62
2022/03/07 12:39:47;;;;;;;12.97;9.37;;;;;;;;;;5051802;28;20441;-62
2022/03/07 12:42:14;;;;;;;14.50;10.07;;;;;;;;;;5052725;28;20406;-62
2022/03/07 12:44:40;;;;;;;11.97;9.10;;;;;;;;;;5052858;28;20564;-69
2022/03/07 12:47:07;;;;;;;16.67;10.70;;;;;;;;;;5052881;28;20479;-62
2022/03/07 12:49:33;;;;;;;17.50;10.40;;;;;;;;;;5052906;28;20407;-65
2022/03/07 12:52:05;;;;;;;16.87;10.70;;;;;;;;;;5052898;28;20402;-62
2022/03/07 12:54:35;;;;;;;16.60;10.93;;;;;;;;;;5052662;28;20429;-73
2022/03/07 12:57:02;;;;;;;15.00;9.77;;;;;;;;;;5053021;28;20401;-68
2022/03/07 12:59:29;;;;;;;17.40;10.03;;;;;;;;;;5052738;28;20489;-69
2022/03/07 13:01:57;;;;;;;14.23;9.20;;;;;;;;;;5051352;28;20773;-67
2022/03/07 13:04:27;;;;;;;11.97;9.37;;;;;;;;;;5052723;28;20474;-65
2022/03/07 13:06:55;;;;;;;17.20;10.43;;;;;;;;;;5052836;28;20440;-65
2022/03/07 13:09:32;;;;;;;16.00;10.00;;;;;;;;;;5053043;28;20425;-64
2022/03/07 13:11:58;;;;;;;13.40;10.13;;;;;;;;;;5052770;28;20410;-62
2022/03/07 13:14:25;;;;;;;15.60;10.10;;;;;;;;;;5052849;28;20410;-64
2022/03/07 13:16:52;;;;;;;16.00;10.20;;;;;;;;;;5052688;28;20490;-67
2022/03/07 13:19:20;;;;;;;12.70;9.87;;;;;;;;;;5052705;28;20417;-66
2022/03/07 13:21:46;;;;;;;11.30;8.50;;;;;;;;;;5052486;28;20402;-63
2022/03/07 13:24:16;;;;;;;14.43;9.20;;;;;;;;;;5052439;28;20464;-64
2022/03/07 13:26:42;;;;;;;16.53;10.23;;;;;;;;;;5052569;28;20403;-65
2022/03/07 13:29:15;;;;;;;15.80;9.90;;;;;;;;;;5052688;28;20425;-62
2022/03/07 13:31:49;;;;;;;16.80;10.67;;;;;;;;;;5051340;28;20414;-63
2022/03/07 13:34:16;;;;;;;14.87;10.60;;;;;;;;;;5053343;28;20529;-62
2022/03/07 13:36:46;;;;;;;12.93;8.90;;;;;;;;;;5056241;28;20549;-62
2022/03/07 13:39:26;;;;;;;15.43;9.80;;;;;;;;;;5054836;28;20778;-65
2022/03/07 13:41:54;;;;;;;14.17;10.50;;;;;;;;;;5056090;28;20439;-62
2022/03/07 13:44:21;;;;;;;12.90;8.30;;;;;;;;;;5056070;28;20459;-64
2022/03/07 13:46:57;;;;;;;16.10;11.00;;;;;;;;;;5056007;28;20427;-64
2022/03/07 13:49:28;;;;;;;18.43;10.50;;;;;;;;;;5056045;28;20391;-64
2022/03/07 13:51:54;;;;;;;14.03;10.33;;;;;;;;;;5056061;28;20488;-62
2022/03/07 13:54:20;;;;;;;17.20;10.53;;;;;;;;;;5055741;28;20553;-70
2022/03/07 13:56:46;;;;;;;10.97;7.50;;;;;;;;;;5055918;28;20415;-69
2022/03/07 13:59:15;;;;;;;16.17;10.67;;;;;;;;;;5055895;28;20406;-66
2022/03/07 14:01:42;;;;;;;14.07;10.27;;;;;;;;;;5055607;28;20398;-71
2022/03/07 14:04:15;;;;;;;14.57;9.87;;;;;;;;;;5055420;28;20479;-74
2022/03/07 14:06:44;;;;;;;13.13;9.43;;;;;;;;;;5055687;28;20422;-75
2022/03/07 14:09:13;;;;;;;13.27;8.90;;;;;;;;;;5055792;28;20903;-72
2022/03/07 14:11:40;;;;;;;15.53;10.50;;;;;;;;;;5055538;28;20488;-71
2022/03/07 14:14:16;;;;;;;18.03;10.60;;;;;;;;;;5055522;28;20890;-78
2022/03/07 14:16:42;;;;;;;14.20;10.07;;;;;;;;;;5055438;28;20484;-72
2022/03/07 14:19:09;;;;;;;14.90;9.60;;;;;;;;;;5055681;28;20424;-77
2022/03/07 14:21:37;;;;;;;11.80;9.60;;;;;;;;;;5055369;28;20453;-72
2022/03/07 14:24:03;;;;;;;16.20;10.10;;;;;;;;;;5055416;28;20434;-76
2022/03/07 14:26:30;;;;;;;15.50;11.07;;;;;;;;;;5055620;28;20470;-74